Terminal Aerodrome Forecast
Issued by NWS

Home | Current Version | Previous Version | Text Only | Print | Product List | Glossary On
Versions: 1 2 3 4 5 6 7 8 9 10 11 12 13 14 15 16 17 18 19 20 21
000
FTUS46 KSGX 030500
TAFSNA
TAF
KSNA 030520Z 0306/0406 VRB03KT P6SM OVC015
     FM031700 VRB04KT P6SM SCT017
     FM031900 23009KT P6SM FEW020
     FM040100 23006KT P6SM SCT018
     FM040430 VRB04KT P6SM OVC017=

USA.gov is the U.S. government's official web portal to all federal, state and local government web resources and services.